sensor_id;sensor_type;location;lat;lon;timestamp;pressure;altitude;pressure_sealevel;temperature;humidity
51067;BME280;37112;45.892;-123.962;2022-12-24T00:00:43;101786.55;;;10.99;100.00
51067;BME280;37112;45.892;-123.962;2022-12-24T00:02:59;101788.80;;;11.00;100.00
51067;BME280;37112;45.892;-123.962;2022-12-24T00:05:13;101789.98;;;11.01;100.00
51067;BME280;37112;45.892;-123.962;2022-12-24T00:07:26;101793.66;;;11.02;100.00
51067;BME280;37112;45.892;-123.962;2022-12-24T00:09:40;101796.44;;;11.03;100.00
51067;BME280;37112;45.892;-123.962;2022-12-24T00:11:53;101790.84;;;11.05;100.00
51067;BME280;37112;45.892;-123.962;2022-12-24T00:14:06;101779.75;;;11.06;100.00
51067;BME280;37112;45.892;-123.962;2022-12-24T00:16:20;101774.70;;;11.08;100.00
51067;BME280;37112;45.892;-123.962;2022-12-24T00:18:33;101771.84;;;11.08;100.00
51067;BME280;37112;45.892;-123.962;2022-12-24T00:20:55;101777.66;;;11.09;100.00
51067;BME280;37112;45.892;-123.962;2022-12-24T00:23:08;101770.37;;;11.09;100.00
51067;BME280;37112;45.892;-123.962;2022-12-24T00:25:22;101772.79;;;11.10;100.00
51067;BME280;37112;45.892;-123.962;2022-12-24T00:27:35;101775.71;;;11.12;100.00
51067;BME280;37112;45.892;-123.962;2022-12-24T00:29:49;101780.11;;;11.13;100.00
51067;BME280;37112;45.892;-123.962;2022-12-24T00:32:03;101783.95;;;11.14;100.00
51067;BME280;37112;45.892;-123.962;2022-12-24T00:34:21;101793.27;;;11.16;100.00
51067;BME280;37112;45.892;-123.962;2022-12-24T00:36:34;101793.05;;;11.17;100.00
51067;BME280;37112;45.892;-123.962;2022-12-24T00:38:48;101798.69;;;11.18;100.00
51067;BME280;37112;45.892;-123.962;2022-12-24T00:41:03;101802.40;;;11.18;100.00
51067;BME280;37112;45.892;-123.962;2022-12-24T00:43:34;101798.00;;;11.17;100.00
51067;BME280;37112;45.892;-123.962;2022-12-24T00:45:48;101800.29;;;11.18;100.00
51067;BME280;37112;45.892;-123.962;2022-12-24T00:48:02;101796.90;;;11.18;100.00
51067;BME280;37112;45.892;-123.962;2022-12-24T00:50:15;101781.61;;;11.18;100.00
51067;BME280;37112;45.892;-123.962;2022-12-24T00:52:45;101772.98;;;11.20;100.00
51067;BME280;37112;45.892;-123.962;2022-12-24T00:54:59;101766.30;;;11.22;100.00
51067;BME280;37112;45.892;-123.962;2022-12-24T00:57:12;101753.23;;;11.23;100.00
51067;BME280;37112;45.892;-123.962;2022-12-24T00:59:26;101747.29;;;11.25;100.00
51067;BME280;37112;45.892;-123.962;2022-12-24T01:01:39;101751.08;;;11.27;100.00
51067;BME280;37112;45.892;-123.962;2022-12-24T01:03:54;101751.38;;;11.28;100.00
51067;BME280;37112;45.892;-123.962;2022-12-24T01:06:27;101753.33;;;11.28;100.00
51067;BME280;37112;45.892;-123.962;2022-12-24T01:08:41;101762.92;;;11.28;100.00
51067;BME280;37112;45.892;-123.962;2022-12-24T01:10:54;101762.91;;;11.29;100.00
51067;BME280;37112;45.892;-123.962;2022-12-24T01:13:08;101766.47;;;11.29;100.00
51067;BME280;37112;45.892;-123.962;2022-12-24T01:15:21;101757.95;;;11.28;100.00
51067;BME280;37112;45.892;-123.962;2022-12-24T01:17:36;101758.23;;;11.30;100.00
51067;BME280;37112;45.892;-123.962;2022-12-24T01:19:49;101749.23;;;11.32;100.00
51067;BME280;37112;45.892;-123.962;2022-12-24T01:22:04;101747.34;;;11.34;100.00
51067;BME280;37112;45.892;-123.962;2022-12-24T01:24:17;101748.83;;;11.35;100.00
51067;BME280;37112;45.892;-123.962;2022-12-24T01:26:31;101754.66;;;11.37;100.00
51067;BME280;37112;45.892;-123.962;2022-12-24T01:28:44;101758.13;;;11.38;100.00
51067;BME280;37112;45.892;-123.962;2022-12-24T01:30:57;101760.34;;;11.40;100.00
51067;BME280;37112;45.892;-123.962;2022-12-24T01:33:11;101751.91;;;11.41;100.00
51067;BME280;37112;45.892;-123.962;2022-12-24T01:35:24;101750.61;;;11.42;100.00
51067;BME280;37112;45.892;-123.962;2022-12-24T01:37:38;101753.20;;;11.43;100.00
51067;BME280;37112;45.892;-123.962;2022-12-24T01:39:52;101762.89;;;11.46;100.00
51067;BME280;37112;45.892;-123.962;2022-12-24T01:42:26;101773.63;;;11.48;100.00
51067;BME280;37112;45.892;-123.962;2022-12-24T01:47:24;101800.08;;;11.48;100.00
51067;BME280;37112;45.892;-123.962;2022-12-24T01:49:41;101796.29;;;11.47;100.00
51067;BME280;37112;45.892;-123.962;2022-12-24T01:51:58;101793.79;;;11.47;100.00
51067;BME280;37112;45.892;-123.962;2022-12-24T01:54:15;101796.98;;;11.47;100.00
51067;BME280;37112;45.892;-123.962;2022-12-24T01:56:31;101801.56;;;11.47;100.00
51067;BME280;37112;45.892;-123.962;2022-12-24T01:58:49;101798.14;;;11.48;100.00
51067;BME280;37112;45.892;-123.962;2022-12-24T02:01:04;101803.42;;;11.49;100.00
51067;BME280;37112;45.892;-123.962;2022-12-24T02:03:17;101802.16;;;11.49;100.00
51067;BME280;37112;45.892;-123.962;2022-12-24T02:05:33;101806.73;;;11.50;100.00
51067;BME280;37112;45.892;-123.962;2022-12-24T02:07:49;101808.14;;;11.51;100.00
51067;BME280;37112;45.892;-123.962;2022-12-24T02:10:03;101799.95;;;11.51;100.00
51067;BME280;37112;45.892;-123.962;2022-12-24T02:12:17;101794.39;;;11.52;100.00
51067;BME280;37112;45.892;-123.962;2022-12-24T02:14:31;101793.51;;;11.51;100.00
51067;BME280;37112;45.892;-123.962;2022-12-24T02:16:52;101787.43;;;11.52;100.00
51067;BME280;37112;45.892;-123.962;2022-12-24T02:21:58;101783.18;;;11.55;100.00
51067;BME280;37112;45.892;-123.962;2022-12-24T02:27:15;101805.35;;;11.59;100.00
51067;BME280;37112;45.892;-123.962;2022-12-24T02:29:52;101811.59;;;11.59;100.00
51067;BME280;37112;45.892;-123.962;2022-12-24T02:32:13;101812.02;;;11.58;100.00
51067;BME280;37112;45.892;-123.962;2022-12-24T02:34:30;101811.92;;;11.56;100.00
51067;BME280;37112;45.892;-123.962;2022-12-24T02:36:48;101803.41;;;11.56;100.00
51067;BME280;37112;45.892;-123.962;2022-12-24T02:39:10;101799.27;;;11.57;100.00
51067;BME280;37112;45.892;-123.962;2022-12-24T02:41:27;101797.63;;;11.57;100.00
51067;BME280;37112;45.892;-123.962;2022-12-24T02:44:02;101800.85;;;11.57;100.00
51067;BME280;37112;45.892;-123.962;2022-12-24T02:46:18;101797.98;;;11.57;100.00
51067;BME280;37112;45.892;-123.962;2022-12-24T02:48:33;101793.40;;;11.57;100.00
51067;BME280;37112;45.892;-123.962;2022-12-24T02:51:00;101791.61;;;11.57;100.00
51067;BME280;37112;45.892;-123.962;2022-12-24T02:53:14;101789.59;;;11.58;100.00
51067;BME280;37112;45.892;-123.962;2022-12-24T02:55:36;101783.45;;;11.60;100.00
51067;BME280;37112;45.892;-123.962;2022-12-24T02:58:13;101779.45;;;11.65;100.00
51067;BME280;37112;45.892;-123.962;2022-12-24T03:00:39;101780.91;;;11.67;100.00
51067;BME280;37112;45.892;-123.962;2022-12-24T03:03:07;101771.50;;;11.70;100.00
51067;BME280;37112;45.892;-123.962;2022-12-24T03:05:33;101769.64;;;11.71;100.00
51067;BME280;37112;45.892;-123.962;2022-12-24T03:07:55;101772.55;;;11.73;100.00
51067;BME280;37112;45.892;-123.962;2022-12-24T03:10:18;101771.73;;;11.76;100.00
51067;BME280;37112;45.892;-123.962;2022-12-24T03:12:37;101768.80;;;11.77;100.00
51067;BME280;37112;45.892;-123.962;2022-12-24T03:14:52;101770.09;;;11.79;100.00
51067;BME280;37112;45.892;-123.962;2022-12-24T03:17:05;101770.68;;;11.82;100.00
51067;BME280;37112;45.892;-123.962;2022-12-24T03:19:21;101772.58;;;11.83;100.00
51067;BME280;37112;45.892;-123.962;2022-12-24T03:21:38;101776.75;;;11.85;100.00
51067;BME280;37112;45.892;-123.962;2022-12-24T03:23:52;101778.86;;;11.85;100.00
51067;BME280;37112;45.892;-123.962;2022-12-24T03:26:08;101781.96;;;11.87;100.00
51067;BME280;37112;45.892;-123.962;2022-12-24T03:28:27;101787.99;;;11.87;100.00
51067;BME280;37112;45.892;-123.962;2022-12-24T03:30:44;101782.86;;;11.87;100.00
51067;BME280;37112;45.892;-123.962;2022-12-24T03:32:58;101776.03;;;11.85;100.00
51067;BME280;37112;45.892;-123.962;2022-12-24T03:35:12;101773.41;;;11.84;100.00
51067;BME280;37112;45.892;-123.962;2022-12-24T03:37:25;101775.80;;;11.83;100.00
51067;BME280;37112;45.892;-123.962;2022-12-24T03:39:39;101768.59;;;11.81;100.00
51067;BME280;37112;45.892;-123.962;2022-12-24T03:41:52;101774.46;;;11.81;100.00
51067;BME280;37112;45.892;-123.962;2022-12-24T03:44:07;101780.11;;;11.82;100.00
51067;BME280;37112;45.892;-123.962;2022-12-24T03:46:20;101777.04;;;11.83;100.00
51067;BME280;37112;45.892;-123.962;2022-12-24T03:48:34;101784.45;;;11.84;100.00
51067;BME280;37112;45.892;-123.962;2022-12-24T03:50:48;101783.75;;;11.87;100.00
51067;BME280;37112;45.892;-123.962;2022-12-24T03:53:01;101786.34;;;11.88;100.00
51067;BME280;37112;45.892;-123.962;2022-12-24T03:55:15;101789.59;;;11.90;100.00
51067;BME280;37112;45.892;-123.962;2022-12-24T03:57:28;101794.39;;;11.91;100.00
51067;BME280;37112;45.892;-123.962;2022-12-24T03:59:43;101808.17;;;11.93;100.00
51067;BME280;37112;45.892;-123.962;2022-12-24T04:01:56;101805.08;;;11.94;100.00
51067;BME280;37112;45.892;-123.962;2022-12-24T04:04:11;101806.88;;;11.93;100.00
51067;BME280;37112;45.892;-123.962;2022-12-24T04:06:24;101804.33;;;11.94;100.00
51067;BME280;37112;45.892;-123.962;2022-12-24T04:08:38;101803.59;;;11.95;100.00
51067;BME280;37112;45.892;-123.962;2022-12-24T04:10:51;101800.50;;;11.96;100.00
51067;BME280;37112;45.892;-123.962;2022-12-24T04:13:05;101796.35;;;11.94;100.00
51067;BME280;37112;45.892;-123.962;2022-12-24T04:15:18;101795.19;;;11.92;100.00
51067;BME280;37112;45.892;-123.962;2022-12-24T04:17:32;101797.54;;;11.92;100.00
51067;BME280;37112;45.892;-123.962;2022-12-24T04:19:45;101796.18;;;11.90;100.00
51067;BME280;37112;45.892;-123.962;2022-12-24T04:21:59;101801.73;;;11.90;100.00
51067;BME280;37112;45.892;-123.962;2022-12-24T04:24:13;101799.11;;;11.89;100.00
51067;BME280;37112;45.892;-123.962;2022-12-24T04:26:26;101800.20;;;11.88;100.00
51067;BME280;37112;45.892;-123.962;2022-12-24T04:28:40;101794.99;;;11.89;100.00
51067;BME280;37112;45.892;-123.962;2022-12-24T04:31:00;101799.23;;;11.90;100.00
51067;BME280;37112;45.892;-123.962;2022-12-24T04:33:13;101799.50;;;11.91;100.00
51067;BME280;37112;45.892;-123.962;2022-12-24T04:35:27;101789.65;;;11.93;100.00
51067;BME280;37112;45.892;-123.962;2022-12-24T04:37:40;101794.01;;;11.94;100.00
51067;BME280;37112;45.892;-123.962;2022-12-24T04:39:54;101801.23;;;11.95;100.00
51067;BME280;37112;45.892;-123.962;2022-12-24T04:42:07;101797.33;;;11.95;100.00
51067;BME280;37112;45.892;-123.962;2022-12-24T04:44:22;101802.40;;;11.97;100.00
51067;BME280;37112;45.892;-123.962;2022-12-24T04:46:35;101798.83;;;11.97;100.00
51067;BME280;37112;45.892;-123.962;2022-12-24T04:48:49;101807.83;;;11.98;100.00
51067;BME280;37112;45.892;-123.962;2022-12-24T04:51:07;101813.80;;;12.00;100.00
51067;BME280;37112;45.892;-123.962;2022-12-24T04:53:21;101816.40;;;12.02;100.00
51067;BME280;37112;45.892;-123.962;2022-12-24T04:55:34;101819.48;;;12.04;100.00
51067;BME280;37112;45.892;-123.962;2022-12-24T04:57:47;101815.77;;;12.06;100.00
51067;BME280;37112;45.892;-123.962;2022-12-24T05:00:02;101819.02;;;12.09;100.00
51067;BME280;37112;45.892;-123.962;2022-12-24T05:02:16;101828.68;;;12.11;100.00
51067;BME280;37112;45.892;-123.962;2022-12-24T05:04:30;101826.76;;;12.13;100.00
51067;BME280;37112;45.892;-123.962;2022-12-24T05:06:43;101829.29;;;12.16;100.00
51067;BME280;37112;45.892;-123.962;2022-12-24T05:08:58;101826.69;;;12.18;100.00
51067;BME280;37112;45.892;-123.962;2022-12-24T05:11:12;101818.95;;;12.19;100.00
51067;BME280;37112;45.892;-123.962;2022-12-24T05:13:26;101816.77;;;12.20;100.00
51067;BME280;37112;45.892;-123.962;2022-12-24T05:15:53;101808.98;;;12.22;100.00
51067;BME280;37112;45.892;-123.962;2022-12-24T05:18:07;101816.58;;;12.24;100.00
51067;BME280;37112;45.892;-123.962;2022-12-24T05:20:20;101814.17;;;12.25;100.00
51067;BME280;37112;45.892;-123.962;2022-12-24T05:22:33;101816.17;;;12.27;100.00
51067;BME280;37112;45.892;-123.962;2022-12-24T05:25:03;101818.16;;;12.30;100.00
51067;BME280;37112;45.892;-123.962;2022-12-24T05:27:33;101812.34;;;12.32;100.00
51067;BME280;37112;45.892;-123.962;2022-12-24T05:29:46;101815.11;;;12.34;100.00
51067;BME280;37112;45.892;-123.962;2022-12-24T05:31:59;101829.66;;;12.35;100.00
51067;BME280;37112;45.892;-123.962;2022-12-24T05:34:13;101834.38;;;12.36;100.00
51067;BME280;37112;45.892;-123.962;2022-12-24T05:36:27;101825.93;;;12.37;100.00
51067;BME280;37112;45.892;-123.962;2022-12-24T05:38:40;101824.63;;;12.39;100.00
51067;BME280;37112;45.892;-123.962;2022-12-24T05:40:53;101824.17;;;12.40;100.00
51067;BME280;37112;45.892;-123.962;2022-12-24T05:43:07;101823.55;;;12.42;100.00
51067;BME280;37112;45.892;-123.962;2022-12-24T05:45:20;101823.44;;;12.43;100.00
51067;BME280;37112;45.892;-123.962;2022-12-24T05:47:34;101824.60;;;12.45;100.00
51067;BME280;37112;45.892;-123.962;2022-12-24T05:49:52;101825.28;;;12.46;100.00
51067;BME280;37112;45.892;-123.962;2022-12-24T05:52:05;101818.67;;;12.46;100.00
51067;BME280;37112;45.892;-123.962;2022-12-24T05:54:19;101816.11;;;12.47;100.00
51067;BME280;37112;45.892;-123.962;2022-12-24T05:56:32;101811.57;;;12.48;100.00
51067;BME280;37112;45.892;-123.962;2022-12-24T05:58:45;101805.66;;;12.49;100.00
51067;BME280;37112;45.892;-123.962;2022-12-24T06:00:59;101804.80;;;12.51;100.00
51067;BME280;37112;45.892;-123.962;2022-12-24T06:03:13;101803.17;;;12.52;100.00
51067;BME280;37112;45.892;-123.962;2022-12-24T06:05:26;101796.58;;;12.52;100.00
51067;BME280;37112;45.892;-123.962;2022-12-24T06:07:40;101793.73;;;12.52;100.00
51067;BME280;37112;45.892;-123.962;2022-12-24T06:09:53;101797.96;;;12.53;100.00
51067;BME280;37112;45.892;-123.962;2022-12-24T06:12:07;101805.80;;;12.52;100.00
51067;BME280;37112;45.892;-123.962;2022-12-24T06:14:20;101805.10;;;12.52;100.00
51067;BME280;37112;45.892;-123.962;2022-12-24T06:16:33;101801.76;;;12.51;100.00
51067;BME280;37112;45.892;-123.962;2022-12-24T06:18:47;101815.65;;;12.51;100.00
51067;BME280;37112;45.892;-123.962;2022-12-24T06:21:01;101813.88;;;12.51;100.00
51067;BME280;37112;45.892;-123.962;2022-12-24T06:23:15;101811.27;;;12.50;100.00
51067;BME280;37112;45.892;-123.962;2022-12-24T06:25:28;101807.88;;;12.50;100.00
51067;BME280;37112;45.892;-123.962;2022-12-24T06:27:41;101813.35;;;12.48;100.00
51067;BME280;37112;45.892;-123.962;2022-12-24T06:29:55;101812.48;;;12.48;100.00
51067;BME280;37112;45.892;-123.962;2022-12-24T06:32:09;101816.61;;;12.47;100.00
51067;BME280;37112;45.892;-123.962;2022-12-24T06:34:22;101809.05;;;12.46;100.00
51067;BME280;37112;45.892;-123.962;2022-12-24T06:36:35;101818.70;;;12.46;100.00
51067;BME280;37112;45.892;-123.962;2022-12-24T06:38:49;101805.19;;;12.45;100.00
51067;BME280;37112;45.892;-123.962;2022-12-24T06:41:07;101789.40;;;12.44;100.00
51067;BME280;37112;45.892;-123.962;2022-12-24T06:43:20;101786.26;;;12.43;100.00
51067;BME280;37112;45.892;-123.962;2022-12-24T06:45:33;101793.41;;;12.42;100.00
51067;BME280;37112;45.892;-123.962;2022-12-24T06:47:47;101797.39;;;12.41;100.00
51067;BME280;37112;45.892;-123.962;2022-12-24T06:50:00;101807.81;;;12.40;100.00
51067;BME280;37112;45.892;-123.962;2022-12-24T06:52:14;101804.29;;;12.39;100.00
51067;BME280;37112;45.892;-123.962;2022-12-24T06:54:27;101803.59;;;12.39;100.00
51067;BME280;37112;45.892;-123.962;2022-12-24T06:56:40;101808.79;;;12.38;100.00
51067;BME280;37112;45.892;-123.962;2022-12-24T06:58:54;101821.94;;;12.39;100.00
51067;BME280;37112;45.892;-123.962;2022-12-24T07:01:14;101835.35;;;12.38;100.00
51067;BME280;37112;45.892;-123.962;2022-12-24T07:03:29;101842.84;;;12.38;100.00
51067;BME280;37112;45.892;-123.962;2022-12-24T07:05:44;101859.56;;;12.38;100.00
51067;BME280;37112;45.892;-123.962;2022-12-24T07:07:58;101876.02;;;12.36;100.00
51067;BME280;37112;45.892;-123.962;2022-12-24T07:10:13;101872.83;;;12.33;100.00
51067;BME280;37112;45.892;-123.962;2022-12-24T07:12:28;101881.88;;;12.31;100.00
51067;BME280;37112;45.892;-123.962;2022-12-24T07:14:41;101875.29;;;12.27;100.00
51067;BME280;37112;45.892;-123.962;2022-12-24T07:16:54;101885.23;;;12.25;100.00
51067;BME280;37112;45.892;-123.962;2022-12-24T07:19:08;101880.33;;;12.24;100.00
51067;BME280;37112;45.892;-123.962;2022-12-24T07:21:21;101884.39;;;12.20;100.00
51067;BME280;37112;45.892;-123.962;2022-12-24T07:23:35;101879.55;;;12.18;100.00
51067;BME280;37112;45.892;-123.962;2022-12-24T07:25:48;101875.70;;;12.17;100.00
51067;BME280;37112;45.892;-123.962;2022-12-24T07:28:01;101873.85;;;12.15;100.00
51067;BME280;37112;45.892;-123.962;2022-12-24T07:30:15;101875.36;;;12.14;100.00
51067;BME280;37112;45.892;-123.962;2022-12-24T07:32:29;101875.95;;;12.12;100.00
51067;BME280;37112;45.892;-123.962;2022-12-24T07:34:42;101873.86;;;12.12;100.00
51067;BME280;37112;45.892;-123.962;2022-12-24T07:36:55;101877.46;;;12.11;100.00
51067;BME280;37112;45.892;-123.962;2022-12-24T07:39:08;101861.82;;;12.11;100.00
51067;BME280;37112;45.892;-123.962;2022-12-24T07:41:22;101868.19;;;12.11;100.00
51067;BME280;37112;45.892;-123.962;2022-12-24T07:43:35;101866.72;;;12.12;100.00
51067;BME280;37112;45.892;-123.962;2022-12-24T07:45:49;101866.11;;;12.13;100.00
51067;BME280;37112;45.892;-123.962;2022-12-24T07:48:02;101872.13;;;12.14;100.00
51067;BME280;37112;45.892;-123.962;2022-12-24T07:50:16;101866.17;;;12.16;100.00
51067;BME280;37112;45.892;-123.962;2022-12-24T07:52:29;101870.35;;;12.17;100.00
51067;BME280;37112;45.892;-123.962;2022-12-24T07:54:42;101871.58;;;12.18;100.00
51067;BME280;37112;45.892;-123.962;2022-12-24T07:56:56;101879.60;;;12.17;100.00
51067;BME280;37112;45.892;-123.962;2022-12-24T07:59:09;101870.42;;;12.16;100.00
51067;BME280;37112;45.892;-123.962;2022-12-24T08:01:24;101875.63;;;12.15;100.00
51067;BME280;37112;45.892;-123.962;2022-12-24T08:03:38;101864.30;;;12.14;100.00
51067;BME280;37112;45.892;-123.962;2022-12-24T08:05:52;101860.45;;;12.13;100.00
51067;BME280;37112;45.892;-123.962;2022-12-24T08:08:05;101854.60;;;12.12;100.00
51067;BME280;37112;45.892;-123.962;2022-12-24T08:10:18;101853.98;;;12.10;100.00
51067;BME280;37112;45.892;-123.962;2022-12-24T08:12:32;101847.86;;;12.09;100.00
51067;BME280;37112;45.892;-123.962;2022-12-24T08:14:45;101843.41;;;12.09;100.00
51067;BME280;37112;45.892;-123.962;2022-12-24T08:16:58;101835.39;;;12.09;100.00
51067;BME280;37112;45.892;-123.962;2022-12-24T08:19:12;101837.89;;;12.09;100.00
51067;BME280;37112;45.892;-123.962;2022-12-24T08:21:25;101832.98;;;12.11;100.00
51067;BME280;37112;45.892;-123.962;2022-12-24T08:23:39;101831.05;;;12.13;100.00
51067;BME280;37112;45.892;-123.962;2022-12-24T08:25:52;101822.41;;;12.15;100.00
51067;BME280;37112;45.892;-123.962;2022-12-24T08:28:06;101835.73;;;12.19;100.00
51067;BME280;37112;45.892;-123.962;2022-12-24T08:30:19;101831.45;;;12.22;100.00
51067;BME280;37112;45.892;-123.962;2022-12-24T08:32:33;101819.15;;;12.25;100.00
51067;BME280;37112;45.892;-123.962;2022-12-24T08:34:46;101817.68;;;12.29;100.00
51067;BME280;37112;45.892;-123.962;2022-12-24T08:36:59;101820.80;;;12.34;100.00
51067;BME280;37112;45.892;-123.962;2022-12-24T08:39:13;101825.01;;;12.38;100.00
51067;BME280;37112;45.892;-123.962;2022-12-24T08:41:26;101830.98;;;12.42;100.00
51067;BME280;37112;45.892;-123.962;2022-12-24T08:43:39;101826.88;;;12.46;100.00
51067;BME280;37112;45.892;-123.962;2022-12-24T08:45:53;101824.36;;;12.49;100.00
51067;BME280;37112;45.892;-123.962;2022-12-24T08:48:07;101829.35;;;12.52;100.00
51067;BME280;37112;45.892;-123.962;2022-12-24T08:50:20;101831.38;;;12.54;100.00
51067;BME280;37112;45.892;-123.962;2022-12-24T08:52:33;101825.90;;;12.56;100.00
51067;BME280;37112;45.892;-123.962;2022-12-24T08:54:47;101824.48;;;12.56;100.00
51067;BME280;37112;45.892;-123.962;2022-12-24T08:57:00;101828.91;;;12.57;100.00
51067;BME280;37112;45.892;-123.962;2022-12-24T08:59:14;101830.92;;;12.56;100.00
51067;BME280;37112;45.892;-123.962;2022-12-24T09:01:27;101829.77;;;12.57;100.00
51067;BME280;37112;45.892;-123.962;2022-12-24T09:03:41;101837.52;;;12.59;100.00
51067;BME280;37112;45.892;-123.962;2022-12-24T09:05:55;101847.59;;;12.60;100.00
51067;BME280;37112;45.892;-123.962;2022-12-24T09:08:08;101849.95;;;12.63;100.00
51067;BME280;37112;45.892;-123.962;2022-12-24T09:10:22;101846.80;;;12.65;100.00
51067;BME280;37112;45.892;-123.962;2022-12-24T09:12:36;101843.77;;;12.65;100.00
51067;BME280;37112;45.892;-123.962;2022-12-24T09:14:51;101846.36;;;12.66;100.00
51067;BME280;37112;45.892;-123.962;2022-12-24T09:17:12;101835.63;;;12.66;100.00
51067;BME280;37112;45.892;-123.962;2022-12-24T09:19:25;101831.42;;;12.68;100.00
51067;BME280;37112;45.892;-123.962;2022-12-24T09:21:39;101824.47;;;12.69;100.00
51067;BME280;37112;45.892;-123.962;2022-12-24T09:23:52;101823.05;;;12.69;100.00
51067;BME280;37112;45.892;-123.962;2022-12-24T09:26:08;101824.27;;;12.69;100.00
51067;BME280;37112;45.892;-123.962;2022-12-24T09:28:22;101820.54;;;12.69;100.00
51067;BME280;37112;45.892;-123.962;2022-12-24T09:30:36;101815.05;;;12.68;100.00
51067;BME280;37112;45.892;-123.962;2022-12-24T09:32:49;101813.48;;;12.67;100.00
51067;BME280;37112;45.892;-123.962;2022-12-24T09:35:03;101817.59;;;12.67;100.00
51067;BME280;37112;45.892;-123.962;2022-12-24T09:37:17;101822.91;;;12.68;100.00
51067;BME280;37112;45.892;-123.962;2022-12-24T09:39:30;101825.47;;;12.67;100.00
51067;BME280;37112;45.892;-123.962;2022-12-24T09:41:50;101810.56;;;12.65;100.00
51067;BME280;37112;45.892;-123.962;2022-12-24T09:44:18;101822.93;;;12.64;100.00
51067;BME280;37112;45.892;-123.962;2022-12-24T09:46:37;101828.08;;;12.62;100.00
51067;BME280;37112;45.892;-123.962;2022-12-24T09:48:54;101842.63;;;12.60;100.00
51067;BME280;37112;45.892;-123.962;2022-12-24T09:51:11;101844.18;;;12.58;100.00
51067;BME280;37112;45.892;-123.962;2022-12-24T09:53:28;101849.78;;;12.56;100.00
51067;BME280;37112;45.892;-123.962;2022-12-24T09:55:48;101853.27;;;12.54;100.00
51067;BME280;37112;45.892;-123.962;2022-12-24T09:58:09;101862.48;;;12.52;100.00
51067;BME280;37112;45.892;-123.962;2022-12-24T10:00:31;101864.02;;;12.50;100.00
51067;BME280;37112;45.892;-123.962;2022-12-24T10:02:45;101863.11;;;12.48;100.00
51067;BME280;37112;45.892;-123.962;2022-12-24T10:04:59;101867.13;;;12.46;100.00
51067;BME280;37112;45.892;-123.962;2022-12-24T10:07:25;101868.29;;;12.44;100.00
51067;BME280;37112;45.892;-123.962;2022-12-24T10:09:45;101869.92;;;12.43;100.00
51067;BME280;37112;45.892;-123.962;2022-12-24T10:12:06;101865.88;;;12.43;100.00
51067;BME280;37112;45.892;-123.962;2022-12-24T10:14:41;101868.98;;;12.41;100.00
51067;BME280;37112;45.892;-123.962;2022-12-24T10:17:08;101874.75;;;12.40;100.00
51067;BME280;37112;45.892;-123.962;2022-12-24T10:19:28;101873.96;;;12.38;100.00
51067;BME280;37112;45.892;-123.962;2022-12-24T10:21:59;101870.95;;;12.35;100.00
51067;BME280;37112;45.892;-123.962;2022-12-24T10:24:20;101875.95;;;12.32;100.00
51067;BME280;37112;45.892;-123.962;2022-12-24T10:26:42;101880.27;;;12.31;100.00
51067;BME280;37112;45.892;-123.962;2022-12-24T10:28:58;101881.88;;;12.28;100.00
51067;BME280;37112;45.892;-123.962;2022-12-24T10:31:13;101881.32;;;12.25;100.00
51067;BME280;37112;45.892;-123.962;2022-12-24T10:33:32;101881.21;;;12.24;100.00
51067;BME280;37112;45.892;-123.962;2022-12-24T10:35:52;101882.02;;;12.22;100.00
51067;BME280;37112;45.892;-123.962;2022-12-24T10:38:06;101889.77;;;12.20;100.00
51067;BME280;37112;45.892;-123.962;2022-12-24T10:40:29;101893.71;;;12.20;100.00
51067;BME280;37112;45.892;-123.962;2022-12-24T10:42:45;101892.94;;;12.18;100.00
51067;BME280;37112;45.892;-123.962;2022-12-24T10:45:05;101884.73;;;12.15;100.00
51067;BME280;37112;45.892;-123.962;2022-12-24T10:47:19;101892.55;;;12.12;100.00
51067;BME280;37112;45.892;-123.962;2022-12-24T10:49:38;101885.89;;;12.10;100.00
51067;BME280;37112;45.892;-123.962;2022-12-24T10:51:55;101887.91;;;12.09;100.00
51067;BME280;37112;45.892;-123.962;2022-12-24T10:54:13;101897.58;;;12.08;100.00
51067;BME280;37112;45.892;-123.962;2022-12-24T10:56:41;101893.91;;;12.07;100.00
51067;BME280;37112;45.892;-123.962;2022-12-24T10:58:55;101888.83;;;12.05;100.00
51067;BME280;37112;45.892;-123.962;2022-12-24T11:01:09;101882.50;;;12.04;100.00
51067;BME280;37112;45.892;-123.962;2022-12-24T11:03:31;101885.25;;;12.02;100.00
51067;BME280;37112;45.892;-123.962;2022-12-24T11:05:42;101871.54;;;11.99;100.00
51067;BME280;37112;45.892;-123.962;2022-12-24T11:08:01;101867.05;;;11.96;100.00
51067;BME280;37112;45.892;-123.962;2022-12-24T11:10:25;101873.42;;;11.94;100.00
51067;BME280;37112;45.892;-123.962;2022-12-24T11:12:45;101864.14;;;11.91;100.00
51067;BME280;37112;45.892;-123.962;2022-12-24T11:15:21;101854.83;;;11.89;100.00
51067;BME280;37112;45.892;-123.962;2022-12-24T11:17:35;101846.05;;;11.87;100.00
51067;BME280;37112;45.892;-123.962;2022-12-24T11:19:50;101834.88;;;11.86;100.00
51067;BME280;37112;45.892;-123.962;2022-12-24T11:22:06;101833.95;;;11.87;100.00